Minneapolis, Minnesota
Current Conditions -  °F | °C
As of 6:18 AM on Monday 24 Nov 2014 (Local Time) from KMSP Reporting Station
Haze Haze  
Wind Chill: 10°   Ceiling: 1100
Heat Index: 24°   Visibility: 4mi
Dew Point: 21°   Wind: 20mph
Humidity: 88%   Direction: 310°NW
Pressure: 29.34"   Gusts: 26mph
Location:  44.98°N, 93.26°W
Report Text: KMSP 241218Z 31017G23KT 4SM BR OVC011 M04/M06 A2934 RMK AO2 PK WND 31029/1203 FZRAE17 P0000 I1001 T10441061
Loading
Personal Weather Stations






























Interactive Weather Map New forecast layout! Learn more

10-Day Weather Forecast

Advertisements
Track Severe Weather on mobile